createdAt,value
2023-03-25T00:01:18.589Z,99123.61
2023-03-25T00:03:47.021Z,99119.84
2023-03-25T00:06:15.191Z,99115.89
2023-03-25T00:08:43.113Z,99110.92
2023-03-25T00:11:11.120Z,99116.66
2023-03-25T00:13:40.495Z,99116.35
2023-03-25T00:16:10.328Z,99125.86
2023-03-25T00:18:38.500Z,99129.99
2023-03-25T00:21:11.975Z,99115.45
2023-03-25T00:23:41.469Z,99101.95
2023-03-25T00:26:10.311Z,99110.59
2023-03-25T00:28:38.844Z,99119.72
2023-03-25T00:31:14.290Z,99114.38
2023-03-25T00:33:42.802Z,99113.81
2023-03-25T00:36:13.759Z,99106.86
2023-03-25T00:38:43.659Z,99107.35
2023-03-25T00:41:13.475Z,99116.81
2023-03-25T00:43:41.791Z,99118.69
2023-03-25T00:46:09.723Z,99117.30
2023-03-25T00:48:38.217Z,99125.98
2023-03-25T00:51:10.305Z,99116.15
2023-03-25T00:53:38.357Z,99112.73
2023-03-25T00:56:07.333Z,99111.77
2023-03-25T00:58:35.360Z,99114.59
2023-03-25T01:01:13.453Z,99113.94
2023-03-25T01:03:45.886Z,99111.04
2023-03-25T01:06:16.869Z,99115.05
2023-03-25T01:08:46.195Z,99117.52
2023-03-25T01:11:22.048Z,99118.27
2023-03-25T01:13:52.672Z,99110.36
2023-03-25T01:16:21.186Z,99113.17
2023-03-25T01:18:49.473Z,99117.20
2023-03-25T01:21:18.720Z,99121.20
2023-03-25T01:23:47.521Z,99116.43
2023-03-25T01:26:15.798Z,99110.10
2023-03-25T01:28:45.585Z,99111.38
2023-03-25T01:31:16.003Z,99108.16
2023-03-25T01:33:44.522Z,99103.55
2023-03-25T01:36:13.116Z,99106.19
2023-03-25T01:38:42.281Z,99111.07
2023-03-25T01:41:11.284Z,99114.61
2023-03-25T01:43:40.437Z,99113.65
2023-03-25T01:46:15.776Z,99109.05
2023-03-25T01:48:44.674Z,99110.12
2023-03-25T01:51:24.152Z,99107.75
2023-03-25T01:53:56.733Z,99110.41
2023-03-25T01:56:31.953Z,99107.86
2023-03-25T01:59:03.272Z,99114.65
2023-03-25T02:01:31.892Z,99122.28
2023-03-25T02:04:10.015Z,99124.27
2023-03-25T02:06:43.813Z,99122.57
2023-03-25T02:09:14.675Z,99117.45
2023-03-25T02:11:42.981Z,99117.65
2023-03-25T02:14:15.488Z,99115.42
2023-03-25T02:16:56.870Z,99106.00
2023-03-25T02:19:56.152Z,99103.13
2023-03-25T02:22:27.254Z,99107.85
2023-03-25T02:25:21.297Z,99102.89
2023-03-25T02:28:03.390Z,99095.18
2023-03-25T02:30:53.230Z,99096.76
2023-03-25T02:33:24.326Z,99099.36
2023-03-25T02:36:20.568Z,99103.86
2023-03-25T02:39:04.198Z,99113.02
2023-03-25T02:41:46.993Z,99120.10
2023-03-25T02:44:27.892Z,99113.95
2023-03-25T02:47:00.782Z,99113.27
2023-03-25T02:49:33.934Z,99110.70
2023-03-25T02:52:32.519Z,99103.48
2023-03-25T02:55:05.102Z,99101.77
2023-03-25T02:57:36.081Z,99104.54
2023-03-25T03:00:15.587Z,99108.69
2023-03-25T03:03:00.184Z,99108.19
2023-03-25T03:05:33.837Z,99102.35
2023-03-25T03:08:24.406Z,99106.65
2023-03-25T03:11:24.285Z,99105.95
2023-03-25T03:14:23.890Z,99116.33
2023-03-25T03:17:34.254Z,99120.31
2023-03-25T03:20:08.632Z,99112.63
2023-03-25T03:22:52.982Z,99114.87
2023-03-25T03:25:43.026Z,99114.55
2023-03-25T03:28:28.979Z,99118.02
2023-03-25T03:31:06.762Z,99112.67
2023-03-25T03:34:04.299Z,99112.67
2023-03-25T03:36:38.912Z,99111.48
2023-03-25T03:39:17.273Z,99112.36
2023-03-25T03:41:51.050Z,99109.80
2023-03-25T03:44:23.018Z,99110.15
2023-03-25T03:47:00.256Z,99109.64
2023-03-25T03:49:38.422Z,99108.79
2023-03-25T03:52:14.528Z,99115.69
2023-03-25T03:54:48.416Z,99116.73
2023-03-25T03:57:32.324Z,99114.52
2023-03-25T04:04:38.952Z,99125.67
2023-03-25T04:07:16.455Z,99129.64
2023-03-25T04:09:55.090Z,99128.42
2023-03-25T04:12:32.761Z,99127.75
2023-03-25T04:15:03.554Z,99131.69
2023-03-25T04:17:33.156Z,99135.14
2023-03-25T04:20:08.715Z,99137.02
2023-03-25T04:22:37.853Z,99134.09
2023-03-25T04:25:07.212Z,99138.03
2023-03-25T04:27:37.832Z,99141.63
2023-03-25T04:34:40.110Z,99139.52
2023-03-25T04:37:08.025Z,99138.16
2023-03-25T04:39:36.076Z,99131.95
2023-03-25T04:42:04.226Z,99137.42
2023-03-25T04:44:39.343Z,99133.23
2023-03-25T04:47:14.971Z,99131.84
2023-03-25T04:49:45.223Z,99130.09
2023-03-25T04:52:13.286Z,99133.33
2023-03-25T04:54:41.345Z,99136.89
2023-03-25T04:57:09.463Z,99144.95
2023-03-25T04:59:37.808Z,99143.48
2023-03-25T05:02:06.936Z,99142.88
2023-03-25T05:04:35.319Z,99147.63
2023-03-25T05:07:03.730Z,99148.76
2023-03-25T05:09:31.709Z,99147.61
2023-03-25T05:11:59.640Z,99145.60
2023-03-25T05:14:27.610Z,99140.01
2023-03-25T05:16:57.525Z,99141.23
2023-03-25T05:19:25.679Z,99144.45
2023-03-25T05:21:56.172Z,99142.39
2023-03-25T05:24:24.216Z,99141.50
2023-03-25T05:26:58.110Z,99143.20
2023-03-25T05:29:34.120Z,99145.61
2023-03-25T05:32:02.254Z,99153.35
2023-03-25T05:34:31.159Z,99155.90
2023-03-25T05:36:59.368Z,99161.91
2023-03-25T05:39:28.552Z,99163.13
2023-03-25T05:42:02.680Z,99164.83
2023-03-25T05:44:30.799Z,99161.68
2023-03-25T05:47:01.701Z,99162.84
2023-03-25T05:49:32.802Z,99166.45
2023-03-25T05:52:01.872Z,99164.84
2023-03-25T05:54:31.676Z,99163.21
2023-03-25T05:56:59.685Z,99164.70
2023-03-25T05:59:27.842Z,99165.16
2023-03-25T06:01:56.422Z,99162.67
2023-03-25T06:04:24.813Z,99164.70
2023-03-25T06:06:53.064Z,99164.13
2023-03-25T06:09:21.095Z,99162.53
2023-03-25T06:11:53.519Z,99160.73
2023-03-25T06:14:25.585Z,99157.71
2023-03-25T06:16:53.450Z,99158.50
2023-03-25T06:19:26.642Z,99154.98
2023-03-25T06:21:56.285Z,99160.04
2023-03-25T06:24:30.760Z,99167.48
2023-03-25T06:26:59.152Z,99167.64
2023-03-25T06:29:27.761Z,99164.14
2023-03-25T06:31:55.909Z,99165.98
2023-03-25T06:34:24.019Z,99165.70
2023-03-25T06:36:54.508Z,99162.63
2023-03-25T06:39:22.721Z,99165.89
2023-03-25T06:41:52.207Z,99164.40
2023-03-25T06:44:27.784Z,99165.08
2023-03-25T06:47:26.603Z,99159.65
2023-03-25T06:49:54.978Z,99160.73
2023-03-25T06:52:22.959Z,99162.02
2023-03-25T06:54:51.006Z,99158.95
2023-03-25T06:57:20.243Z,99159.09
2023-03-25T06:59:49.746Z,99148.96
2023-03-25T07:02:17.603Z,99147.80
2023-03-25T07:04:45.817Z,99146.92
2023-03-25T07:07:13.761Z,99150.46
2023-03-25T07:09:41.957Z,99155.50
2023-03-25T07:12:09.960Z,99149.96
2023-03-25T07:14:37.925Z,99144.95
2023-03-25T07:17:06.481Z,99149.27
2023-03-25T07:19:34.494Z,99147.48
2023-03-25T07:22:02.534Z,99142.02
2023-03-25T07:24:30.500Z,99141.58
2023-03-25T07:26:58.772Z,99137.80
2023-03-25T07:29:27.635Z,99134.89
2023-03-25T07:31:55.619Z,99132.34
2023-03-25T07:34:24.029Z,99134.53
2023-03-25T07:36:51.959Z,99135.23
2023-03-25T07:39:22.003Z,99155.05
2023-03-25T07:41:50.136Z,99154.91
2023-03-25T07:44:41.128Z,99158.86
2023-03-25T07:47:09.175Z,99160.71
2023-03-25T07:49:40.959Z,99158.36
2023-03-25T07:52:08.915Z,99156.56
2023-03-25T07:54:38.372Z,99158.42
2023-03-25T07:57:06.441Z,99162.05
2023-03-25T07:59:34.888Z,99157.30
2023-03-25T08:02:02.870Z,99156.06
2023-03-25T08:04:31.379Z,99151.41
2023-03-25T08:06:59.345Z,99156.61
2023-03-25T08:09:27.359Z,99152.95
2023-03-25T08:11:56.172Z,99151.98
2023-03-25T08:14:24.336Z,99151.56
2023-03-25T08:16:52.342Z,99148.70
2023-03-25T08:19:21.149Z,99152.95
2023-03-25T08:21:49.119Z,99151.61
2023-03-25T08:24:17.181Z,99146.10
2023-03-25T08:26:45.165Z,99149.92
2023-03-25T08:29:14.564Z,99153.00
2023-03-25T08:31:47.014Z,99153.19
2023-03-25T08:34:15.386Z,99150.14
2023-03-25T08:36:43.505Z,99146.28
2023-03-25T08:39:12.902Z,99139.33
2023-03-25T08:41:42.011Z,99136.55
2023-03-25T08:44:10.648Z,99131.85
2023-03-25T08:46:38.782Z,99134.63
2023-03-25T08:49:06.782Z,99135.05
2023-03-25T08:51:34.881Z,99136.98
2023-03-25T08:54:04.367Z,99137.11
2023-03-25T08:56:32.374Z,99132.16
2023-03-25T08:59:00.449Z,99128.26
2023-03-25T09:01:29.823Z,99121.16
2023-03-25T09:03:57.925Z,99122.08
2023-03-25T09:06:26.160Z,99126.50
2023-03-25T09:08:56.261Z,99121.52
2023-03-25T09:11:34.041Z,99122.52
2023-03-25T09:14:05.231Z,99121.00
2023-03-25T09:16:34.367Z,99123.74
2023-03-25T09:19:02.778Z,99123.52
2023-03-25T09:21:30.725Z,99125.95
2023-03-25T09:23:58.724Z,99117.24
2023-03-25T09:26:26.814Z,99113.90
2023-03-25T09:28:56.460Z,99111.30
2023-03-25T09:31:26.137Z,99111.80
2023-03-25T09:33:54.419Z,99113.31
2023-03-25T09:36:22.370Z,99116.51
2023-03-25T09:38:51.020Z,99114.41
2023-03-25T09:41:40.940Z,99118.30
2023-03-25T09:44:26.215Z,99110.51
2023-03-25T09:46:55.651Z,99118.17
2023-03-25T09:49:27.993Z,99120.21
2023-03-25T09:51:57.494Z,99122.65
2023-03-25T09:54:38.808Z,99124.01
2023-03-25T09:57:12.334Z,99124.44
2023-03-25T09:59:44.667Z,99121.85
2023-03-25T10:02:21.727Z,99120.38
2023-03-25T10:05:20.288Z,99119.87
2023-03-25T10:08:10.589Z,99117.81
2023-03-25T10:11:01.490Z,99118.02
2023-03-25T10:14:12.704Z,99114.63
2023-03-25T10:17:15.807Z,99114.07
2023-03-25T10:19:51.367Z,99111.42
2023-03-25T10:22:27.210Z,99106.29
2023-03-25T10:25:05.353Z,99095.16
2023-03-25T10:27:41.536Z,99099.73
2023-03-25T10:30:09.553Z,99094.16
2023-03-25T10:32:53.539Z,99089.26
2023-03-25T10:35:27.319Z,99091.33
2023-03-25T10:38:02.080Z,99091.05
2023-03-25T10:40:50.467Z,99089.85
2023-03-25T10:43:21.685Z,99085.66
2023-03-25T10:45:54.197Z,99084.20
2023-03-25T10:48:31.357Z,99083.66
2023-03-25T10:51:04.704Z,99081.80
2023-03-25T10:53:32.795Z,99081.61
2023-03-25T10:56:08.330Z,99075.73
2023-03-25T10:58:39.557Z,99067.90
2023-03-25T11:04:41.593Z,99064.96
2023-03-25T11:07:20.692Z,99057.73
2023-03-25T11:09:48.754Z,99052.85
2023-03-25T11:12:30.158Z,99046.53
2023-03-25T11:15:02.433Z,99040.70
2023-03-25T11:17:31.582Z,99039.98
2023-03-25T11:20:02.119Z,99033.85
2023-03-25T11:22:31.732Z,99035.02
2023-03-25T11:25:30.690Z,99032.44
2023-03-25T11:28:03.111Z,99030.73
2023-03-25T11:30:31.355Z,99029.56
2023-03-25T11:33:21.425Z,99023.39
2023-03-25T11:35:49.790Z,99019.03
2023-03-25T11:38:22.295Z,99022.61
2023-03-25T11:40:56.150Z,99030.36
2023-03-25T11:43:31.440Z,99042.77
2023-03-25T11:46:11.603Z,99042.17
2023-03-25T11:48:41.696Z,99037.09
2023-03-25T11:51:16.575Z,99034.77
2023-03-25T11:53:55.702Z,99032.15
2023-03-25T11:56:38.293Z,99029.13
2023-03-25T11:59:28.448Z,99029.49
2023-03-25T12:02:17.708Z,99022.02
2023-03-25T12:05:16.755Z,99017.70
2023-03-25T12:07:47.552Z,99009.80
2023-03-25T12:10:27.130Z,99013.42
2023-03-25T12:13:12.272Z,99009.98
2023-03-25T12:15:52.372Z,99007.63
2023-03-25T12:18:39.683Z,99008.37
2023-03-25T12:21:33.651Z,99007.36
2023-03-25T12:24:25.764Z,99008.38
2023-03-25T12:26:59.823Z,99006.68
2023-03-25T12:29:50.272Z,99008.85
2023-03-25T12:32:29.709Z,99006.78
2023-03-25T12:35:04.513Z,99004.48
2023-03-25T12:37:45.671Z,98995.45
2023-03-25T12:40:25.730Z,98991.12
2023-03-25T12:43:05.685Z,98984.57
2023-03-25T12:45:37.578Z,98985.61
2023-03-25T12:48:09.030Z,98975.59
2023-03-25T12:51:28.281Z,98972.61
2023-03-25T12:54:08.818Z,98980.36
2023-03-25T12:56:42.979Z,98982.88
2023-03-25T12:59:29.511Z,98984.34
2023-03-25T13:02:21.604Z,98977.37
2023-03-25T13:05:04.681Z,98978.92
2023-03-25T13:07:38.722Z,98984.30
2023-03-25T13:10:25.215Z,98983.05
2023-03-25T13:12:56.362Z,98987.73
2023-03-25T13:15:27.754Z,98991.33
2023-03-25T13:17:58.244Z,98992.81
2023-03-25T13:20:30.144Z,98996.70
2023-03-25T13:23:05.063Z,98997.84
2023-03-25T13:25:53.129Z,98997.96
2023-03-25T13:28:30.516Z,98990.23
2023-03-25T13:31:01.366Z,98984.31
2023-03-25T13:33:35.348Z,98980.21
2023-03-25T13:36:22.359Z,98971.73
2023-03-25T13:38:54.109Z,98964.58
2023-03-25T13:41:39.108Z,98966.42
2023-03-25T13:44:13.036Z,98956.55
2023-03-25T13:46:48.969Z,98952.61
2023-03-25T13:49:33.050Z,98950.55
2023-03-25T13:52:01.846Z,98951.11
2023-03-25T13:55:08.925Z,98950.33
2023-03-25T13:57:36.867Z,98948.08
2023-03-25T14:00:32.205Z,98955.95
2023-03-25T14:03:26.501Z,98956.45
2023-03-25T14:06:31.017Z,98954.07
2023-03-25T14:09:11.295Z,98952.73
2023-03-25T14:11:50.424Z,98953.42
2023-03-25T14:14:22.358Z,98953.26
2023-03-25T14:16:59.929Z,98951.20
2023-03-25T14:19:31.922Z,98947.56
2023-03-25T14:22:18.086Z,98950.37
2023-03-25T14:24:46.943Z,98949.38
2023-03-25T14:27:32.725Z,98950.13
2023-03-25T14:30:07.065Z,98954.45
2023-03-25T14:32:40.138Z,98961.14
2023-03-25T14:35:34.148Z,98962.30
2023-03-25T14:38:08.781Z,98966.33
2023-03-25T14:40:50.680Z,98976.64
2023-03-25T14:43:34.354Z,99001.58
2023-03-25T14:46:12.974Z,99006.83
2023-03-25T14:48:46.923Z,99022.23
2023-03-25T14:51:18.608Z,99031.65
2023-03-25T14:54:01.061Z,99033.55
2023-03-25T14:56:38.318Z,99047.78
2023-03-25T14:59:15.763Z,99048.42
2023-03-25T15:01:45.686Z,99055.79
2023-03-25T15:04:18.664Z,99058.95
2023-03-25T15:06:49.219Z,99055.09
2023-03-25T15:09:19.025Z,99053.98
2023-03-25T15:11:59.893Z,99059.59
2023-03-25T15:14:32.899Z,99063.34
2023-03-25T15:17:05.609Z,99064.80
2023-03-25T15:20:10.930Z,99065.31
2023-03-25T15:22:40.996Z,99063.05
2023-03-25T15:25:19.439Z,99063.77
2023-03-25T15:28:07.463Z,99045.26
2023-03-25T15:30:50.896Z,99015.80
2023-03-25T15:33:42.898Z,99009.28
2023-03-25T15:36:40.272Z,99022.74
2023-03-25T15:39:22.745Z,99009.98
2023-03-25T15:42:02.967Z,99006.83
2023-03-25T15:44:55.631Z,99002.98
2023-03-25T15:47:32.157Z,99003.73
2023-03-25T15:50:15.186Z,99004.84
2023-03-25T15:53:14.042Z,98999.20
2023-03-25T15:55:50.481Z,98998.23
2023-03-25T15:58:25.695Z,98997.96
2023-03-25T16:01:00.331Z,98998.45
2023-03-25T16:03:32.043Z,98999.27
2023-03-25T16:06:05.166Z,99002.38
2023-03-25T16:08:40.814Z,99006.20
2023-03-25T16:11:27.487Z,99013.30
2023-03-25T16:14:09.373Z,99016.06
2023-03-25T16:16:53.328Z,99018.59
2023-03-25T16:19:25.913Z,99018.44
2023-03-25T16:21:54.951Z,99021.65
2023-03-25T16:24:26.737Z,99016.44
2023-03-25T16:26:54.733Z,99014.67
2023-03-25T16:29:25.906Z,99015.79
2023-03-25T16:32:00.560Z,99016.36
2023-03-25T16:34:35.444Z,99013.54
2023-03-25T16:37:06.299Z,99014.13
2023-03-25T16:39:36.952Z,99018.01
2023-03-25T16:42:17.092Z,99012.61
2023-03-25T16:44:46.372Z,99015.97
2023-03-25T16:47:17.162Z,99012.05
2023-03-25T16:49:48.246Z,99019.36
2023-03-25T16:52:22.521Z,99016.67
2023-03-25T16:54:50.486Z,99019.52
2023-03-25T16:57:27.474Z,99020.40
2023-03-25T16:59:56.240Z,99027.49
2023-03-25T17:02:24.263Z,99029.23
2023-03-25T17:04:55.895Z,99032.73
2023-03-25T17:07:28.799Z,99038.95
2023-03-25T17:09:59.460Z,99046.21
2023-03-25T17:12:29.303Z,99050.54
2023-03-25T17:15:07.017Z,99054.30
2023-03-25T17:17:51.367Z,99055.66
2023-03-25T17:20:25.124Z,99059.23
2023-03-25T17:23:14.085Z,99059.33
2023-03-25T17:25:56.734Z,99053.92
2023-03-25T17:28:33.805Z,99056.98
2023-03-25T17:31:36.403Z,99050.20
2023-03-25T17:34:13.242Z,99047.87
2023-03-25T17:36:45.460Z,99048.01
2023-03-25T17:39:21.147Z,99048.14
2023-03-25T17:42:01.565Z,99048.11
2023-03-25T17:44:32.797Z,99036.53
2023-03-25T17:47:00.917Z,99039.97
2023-03-25T17:49:29.169Z,99042.02
2023-03-25T17:52:01.287Z,99047.17
2023-03-25T17:54:29.411Z,99049.77
2023-03-25T17:56:57.611Z,99050.30
2023-03-25T17:59:26.871Z,99050.84
2023-03-25T18:01:55.158Z,99058.27
2023-03-25T18:04:23.235Z,99054.33
2023-03-25T18:06:52.382Z,99056.56
2023-03-25T18:09:24.967Z,99058.98
2023-03-25T18:11:56.363Z,99056.77
2023-03-25T18:14:26.007Z,99056.45
2023-03-25T18:16:54.601Z,99059.23
2023-03-25T18:19:32.339Z,99060.45
2023-03-25T18:22:09.768Z,99063.91
2023-03-25T18:24:42.063Z,99069.75
2023-03-25T18:27:14.314Z,99069.22
2023-03-25T18:29:42.381Z,99072.31
2023-03-25T18:32:10.476Z,99074.71
2023-03-25T18:34:38.526Z,99074.39
2023-03-25T18:37:07.708Z,99072.84
2023-03-25T18:39:35.790Z,99075.08
2023-03-25T18:42:03.822Z,99083.38
2023-03-25T18:44:31.788Z,99104.44
2023-03-25T18:47:00.040Z,99114.59
2023-03-25T18:49:28.193Z,99118.01
2023-03-25T18:51:57.897Z,99115.08
2023-03-25T18:54:26.004Z,99105.77
2023-03-25T18:56:54.096Z,99102.15
2023-03-25T18:59:22.240Z,99097.89
2023-03-25T19:04:39.874Z,99095.88
2023-03-25T19:07:13.358Z,99090.25
2023-03-25T19:09:41.758Z,99089.42
2023-03-25T19:12:11.070Z,99085.48
2023-03-25T19:14:39.106Z,99080.34
2023-03-25T19:17:07.412Z,99079.14
2023-03-25T19:19:36.394Z,99078.27
2023-03-25T19:22:04.570Z,99080.03
2023-03-25T19:24:32.517Z,99084.86
2023-03-25T19:27:01.013Z,99083.82
2023-03-25T19:29:29.301Z,99082.81
2023-03-25T19:31:57.839Z,99082.65
2023-03-25T19:34:26.039Z,99077.15
2023-03-25T19:37:02.492Z,99076.51
2023-03-25T19:39:31.637Z,99077.23
2023-03-25T19:41:59.669Z,99075.91
2023-03-25T19:44:27.826Z,99071.11
2023-03-25T19:46:56.038Z,99068.06
2023-03-25T19:49:36.723Z,99070.16
2023-03-25T19:52:08.402Z,99067.79
2023-03-25T19:54:36.375Z,99072.45
2023-03-25T19:57:04.374Z,99071.46
2023-03-25T19:59:33.538Z,99073.41
2023-03-25T20:02:02.183Z,99066.89
2023-03-25T20:04:30.250Z,99065.23
2023-03-25T20:06:58.213Z,99057.73
2023-03-25T20:09:27.882Z,99054.69
2023-03-25T20:11:57.271Z,99056.98
2023-03-25T20:14:25.221Z,99054.83
2023-03-25T20:16:53.410Z,99054.16
2023-03-25T20:19:22.216Z,99054.92
2023-03-25T20:21:50.614Z,99054.10
2023-03-25T20:24:19.042Z,99051.55
2023-03-25T20:26:47.097Z,99050.04
2023-03-25T20:29:17.655Z,99054.35
2023-03-25T20:31:46.045Z,99053.02
2023-03-25T20:34:14.296Z,99058.17
2023-03-25T20:36:42.301Z,99058.20
2023-03-25T20:39:11.336Z,99059.07
2023-03-25T20:41:39.575Z,99060.29
2023-03-25T20:44:07.724Z,99057.21
2023-03-25T20:46:35.816Z,99057.56
2023-03-25T20:49:06.866Z,99056.20
2023-03-25T20:51:36.462Z,99055.70
2023-03-25T20:54:04.599Z,99052.78
2023-03-25T20:56:33.192Z,99049.21
2023-03-25T20:59:02.534Z,99055.41
2023-03-25T21:01:31.852Z,99054.05
2023-03-25T21:04:25.195Z,99053.89
2023-03-25T21:06:53.323Z,99050.27
2023-03-25T21:09:22.252Z,99055.09
2023-03-25T21:11:50.916Z,99053.55
2023-03-25T21:14:19.272Z,99053.20
2023-03-25T21:16:47.932Z,99056.11
2023-03-25T21:19:16.610Z,99058.16
2023-03-25T21:21:44.562Z,99056.80
2023-03-25T21:24:14.122Z,99051.13
2023-03-25T21:26:41.975Z,99050.98
2023-03-25T21:29:10.198Z,99049.44
2023-03-25T21:31:38.250Z,99045.49
2023-03-25T21:34:06.558Z,99047.05
2023-03-25T21:36:34.482Z,99044.66
2023-03-25T21:39:04.519Z,99047.42
2023-03-25T21:41:32.553Z,99047.59
2023-03-25T21:44:00.791Z,99043.83
2023-03-25T21:46:29.091Z,99044.52
2023-03-25T21:49:00.946Z,99046.57
2023-03-25T21:51:36.006Z,99042.10
2023-03-25T21:54:04.205Z,99036.59
2023-03-25T21:56:34.727Z,99037.62
2023-03-25T21:59:04.639Z,99037.08
2023-03-25T22:01:32.783Z,99037.77
2023-03-25T22:04:03.002Z,99040.84
2023-03-25T22:06:33.416Z,99036.54
2023-03-25T22:09:05.574Z,99043.57
2023-03-25T22:11:37.419Z,99040.46
2023-03-25T22:14:05.639Z,99044.02
2023-03-25T22:16:34.227Z,99041.23
2023-03-25T22:19:02.323Z,99042.39
2023-03-25T22:21:37.131Z,99043.55
2023-03-25T22:24:07.224Z,99038.53
2023-03-25T22:26:38.548Z,99037.30
2023-03-25T22:29:08.327Z,99039.84
2023-03-25T22:31:40.871Z,99037.77
2023-03-25T22:34:13.111Z,99041.17
2023-03-25T22:36:46.349Z,99044.27
2023-03-25T22:39:14.531Z,99045.45
2023-03-25T22:41:42.407Z,99046.98
2023-03-25T22:44:10.771Z,99047.33
2023-03-25T22:46:40.366Z,99046.95
2023-03-25T22:49:08.350Z,99047.80
2023-03-25T22:51:36.370Z,99048.66
2023-03-25T22:54:09.942Z,99045.17
2023-03-25T22:56:43.497Z,99046.88
2023-03-25T22:59:13.742Z,99047.03
2023-03-25T23:01:42.879Z,99047.16
2023-03-25T23:04:11.232Z,99046.27
2023-03-25T23:06:39.511Z,99048.34
2023-03-25T23:09:09.207Z,99047.48
2023-03-25T23:11:38.032Z,99048.35
2023-03-25T23:14:13.349Z,99050.59
2023-03-25T23:16:42.080Z,99051.13
2023-03-25T23:19:10.451Z,99051.81
2023-03-25T23:21:39.039Z,99048.73
2023-03-25T23:24:07.900Z,99046.16
2023-03-25T23:26:39.387Z,99048.92
2023-03-25T23:29:10.612Z,99051.37
2023-03-25T23:31:41.509Z,99051.19
2023-03-25T23:34:15.526Z,99049.68
2023-03-25T23:36:43.976Z,99043.66
2023-03-25T23:39:15.545Z,99046.25
2023-03-25T23:41:45.553Z,99046.46
2023-03-25T23:44:13.541Z,99047.02
2023-03-25T23:46:42.004Z,99052.55
2023-03-25T23:49:10.857Z,99052.39
2023-03-25T23:51:41.434Z,99053.61
2023-03-25T23:54:12.351Z,99052.93
2023-03-25T23:56:42.358Z,99047.08
2023-03-25T23:59:11.714Z,99044.86
